DAAJ/DJG METAR and TAF weather

Enter ICAO airport designator
Station Type Date Time Source
DAAJ METAR 2018/10/19 15:00 UTC NOAA

DAAJ 191500Z 21008KT 6000 NSC 35/02 Q1015


Station Type Date Time Source
DAAJ Decoded METAR 2018/10/19 15:00 UTC NOAA

Djanet, Algeria (DAAJ) 24-33N 009-28E 1054M
Oct 19, 2018 - 11:00 AM EDT / 2018.10.19 1500 UTC
Wind: from the SSW (210 degrees) at 9 MPH (8 KT):0
Visibility: 3 mile(s):0
Temperature: 95 F (35 C)
Dew Point: 35 F (2 C)
Relative Humidity: 12%
Pressure (altimeter): 29.97 in. Hg (1015 hPa)
ob: DAAJ 191500Z 21008KT 6000 NSC 35/02 Q1015
cycle: 15

Station Type Date Time Source
DAAJ TAF 2018/10/19 12:33 UTC NOAA

TAF DAAJ 191100Z 1912/2012 26008KT 6000 NSC PROB30
TEMPO 1912/1915 26018KT 4000 DRSA PROB30 1918/1924 FEW046TCU
BECMG 1920/1923 07010KT


Example: see airport list